createdAt,value
2023-03-08T00:02:23.226Z,15.37
2023-03-08T00:06:27.644Z,18.70
2023-03-08T00:10:30.460Z,18.53
2023-03-08T00:14:33.288Z,18.37
2023-03-08T00:18:37.546Z,24.77
2023-03-08T00:22:41.768Z,21.43
2023-03-08T00:26:44.900Z,17.60
2023-03-08T00:30:55.522Z,18.97
2023-03-08T00:34:59.843Z,18.77
2023-03-08T00:39:02.698Z,17.87
2023-03-08T00:43:06.716Z,23.87
2023-03-08T00:47:10.307Z,22.23
2023-03-08T00:51:15.565Z,19.63
2023-03-08T00:55:18.428Z,21.73
2023-03-08T00:59:23.303Z,24.47
2023-03-08T01:03:27.097Z,18.87
2023-03-08T01:07:32.892Z,24.30
2023-03-08T01:11:37.145Z,25.70
2023-03-08T01:15:40.134Z,22.70
2023-03-08T01:19:42.940Z,24.03
2023-03-08T01:23:47.465Z,29.17
2023-03-08T01:27:51.697Z,24.10
2023-03-08T01:31:54.631Z,22.70
2023-03-08T01:35:58.598Z,26.77
2023-03-08T01:40:04.974Z,23.03
2023-03-08T01:44:11.586Z,23.07
2023-03-08T01:48:17.005Z,19.30
2023-03-08T01:52:40.543Z,23.03
2023-03-08T01:56:48.347Z,24.90
2023-03-08T02:00:51.549Z,25.07
2023-03-08T02:04:54.691Z,22.30
2023-03-08T02:08:57.677Z,20.63
2023-03-08T02:13:02.359Z,26.73
2023-03-08T02:17:05.780Z,26.63
2023-03-08T02:21:08.546Z,31.93
2023-03-08T02:25:16.615Z,24.23
2023-03-08T02:29:19.436Z,25.40
2023-03-08T02:33:23.188Z,25.93
2023-03-08T02:37:26.109Z,25.80
2023-03-08T02:41:31.381Z,22.07
2023-03-08T02:45:34.622Z,21.07
2023-03-08T02:49:37.581Z,25.83
2023-03-08T02:53:40.569Z,29.87
2023-03-08T02:57:44.767Z,28.70
2023-03-08T03:01:47.713Z,28.47
2023-03-08T03:05:50.510Z,28.73
2023-03-08T03:09:58.479Z,31.80
2023-03-08T03:14:03.334Z,28.93
2023-03-08T03:18:11.228Z,37.27
2023-03-08T03:22:14.216Z,27.43
2023-03-08T03:26:20.070Z,29.87
2023-03-08T03:30:27.695Z,36.40
2023-03-08T03:34:30.856Z,37.13
2023-03-08T03:38:34.751Z,35.07
2023-03-08T03:42:38.540Z,31.90
2023-03-08T03:46:47.608Z,35.07
2023-03-08T03:50:57.858Z,29.20
2023-03-08T03:55:01.143Z,28.33
2023-03-08T03:59:04.053Z,26.17
2023-03-08T04:03:09.458Z,32.37
2023-03-08T04:07:13.895Z,28.80
2023-03-08T04:11:27.050Z,25.53
2023-03-08T04:15:30.274Z,32.00
2023-03-08T04:19:38.060Z,25.77
2023-03-08T04:23:42.242Z,25.93
2023-03-08T04:27:45.850Z,24.80
2023-03-08T04:31:49.633Z,31.20
2023-03-08T04:35:56.765Z,31.57
2023-03-08T04:40:01.344Z,27.90
2023-03-08T04:44:07.507Z,30.73
2023-03-08T04:48:17.710Z,34.30
2023-03-08T04:52:23.502Z,27.80
2023-03-08T04:56:26.314Z,26.67
2023-03-08T05:00:30.016Z,29.00
2023-03-08T05:04:33.258Z,26.93
2023-03-08T05:08:38.303Z,25.80
2023-03-08T05:12:42.271Z,28.03
2023-03-08T05:16:45.520Z,26.10
2023-03-08T05:20:54.640Z,31.63
2023-03-08T05:24:58.912Z,20.67
2023-03-08T05:29:03.401Z,27.87
2023-03-08T05:33:07.346Z,27.20
2023-03-08T05:37:10.453Z,22.77
2023-03-08T05:41:17.744Z,29.27
2023-03-08T05:45:25.098Z,28.47
2023-03-08T05:49:29.465Z,27.77
2023-03-08T05:53:33.095Z,31.67
2023-03-08T05:57:37.538Z,26.63
2023-03-08T06:01:41.329Z,30.27
2023-03-08T06:06:01.320Z,26.57
2023-03-08T06:10:04.744Z,29.40
2023-03-08T06:14:09.002Z,32.20
2023-03-08T06:18:12.414Z,31.00
2023-03-08T06:22:17.290Z,30.17
2023-03-08T06:26:21.690Z,25.17
2023-03-08T06:30:25.944Z,27.77
2023-03-08T06:34:29.960Z,27.00
2023-03-08T06:38:35.490Z,24.80
2023-03-08T06:42:41.600Z,25.47
2023-03-08T06:46:49.380Z,28.13
2023-03-08T06:50:52.330Z,25.97
2023-03-08T06:54:55.234Z,31.03
2023-03-08T06:58:58.632Z,31.40
2023-03-08T07:03:02.867Z,36.60
2023-03-08T07:07:07.829Z,33.63
2023-03-08T07:11:11.655Z,27.97
2023-03-08T07:15:15.796Z,27.37
2023-03-08T07:19:20.067Z,29.10
2023-03-08T07:23:22.905Z,27.30
2023-03-08T07:27:25.967Z,26.07
2023-03-08T07:31:29.034Z,31.33
2023-03-08T07:35:33.355Z,32.37
2023-03-08T07:39:36.164Z,24.33
2023-03-08T07:43:39.094Z,25.83
2023-03-08T07:47:51.156Z,27.27
2023-03-08T07:51:55.891Z,28.77
2023-03-08T07:56:00.038Z,23.70
2023-03-08T08:00:07.373Z,20.70
2023-03-08T08:04:14.861Z,23.43
2023-03-08T08:08:19.162Z,22.20
2023-03-08T08:12:23.477Z,22.90
2023-03-08T08:16:26.783Z,20.27
2023-03-08T08:20:29.634Z,26.03
2023-03-08T08:24:33.916Z,28.10
2023-03-08T08:28:37.936Z,24.53
2023-03-08T08:32:41.032Z,20.73
2023-03-08T08:36:43.864Z,28.93
2023-03-08T08:40:48.194Z,27.17
2023-03-08T08:44:51.159Z,29.10
2023-03-08T08:48:53.964Z,28.43
2023-03-08T08:52:57.760Z,30.97
2023-03-08T08:57:02.070Z,30.87
2023-03-08T09:01:05.154Z,30.67
2023-03-08T09:05:08.479Z,30.97
2023-03-08T09:09:11.397Z,33.50
2023-03-08T09:13:15.721Z,37.80
2023-03-08T09:17:19.265Z,37.37
2023-03-08T09:21:22.070Z,39.77
2023-03-08T09:25:25.330Z,39.07
2023-03-08T09:29:29.484Z,39.97
2023-03-08T09:33:32.469Z,38.63
2023-03-08T09:37:35.341Z,44.97
2023-03-08T09:41:49.369Z,49.77
2023-03-08T09:45:55.831Z,54.83
2023-03-08T09:50:07.512Z,50.13
2023-03-08T09:54:14.902Z,51.67
2023-03-08T09:58:33.012Z,49.17
2023-03-08T10:02:44.944Z,55.20
2023-03-08T10:06:57.384Z,55.20
2023-03-08T10:11:03.502Z,56.73
2023-03-08T10:15:12.175Z,50.30
2023-03-08T10:19:21.208Z,55.20
2023-03-08T10:23:25.865Z,49.90
2023-03-08T10:27:33.163Z,42.87
2023-03-08T10:31:36.086Z,49.33
2023-03-08T10:35:54.178Z,47.63
2023-03-08T10:39:59.744Z,45.37
2023-03-08T10:44:02.611Z,39.93
2023-03-08T10:48:07.022Z,37.07
2023-03-08T10:52:24.917Z,34.00
2023-03-08T10:56:37.991Z,33.57
2023-03-08T11:00:43.768Z,28.07
2023-03-08T11:04:52.615Z,32.83
2023-03-08T11:08:59.871Z,30.90
2023-03-08T11:13:04.040Z,29.77
2023-03-08T11:17:16.940Z,30.33
2023-03-08T11:21:27.821Z,26.97
2023-03-08T11:25:43.243Z,32.03
2023-03-08T11:30:01.148Z,26.27
2023-03-08T11:34:20.238Z,28.63
2023-03-08T11:38:26.401Z,30.00
2023-03-08T11:42:46.395Z,26.90
2023-03-08T11:47:04.446Z,29.87
2023-03-08T11:51:15.283Z,27.90
2023-03-08T11:55:43.647Z,27.27
2023-03-08T11:59:52.733Z,24.43
2023-03-08T12:03:59.082Z,28.27
2023-03-08T12:08:06.599Z,23.23
2023-03-08T12:12:15.486Z,25.23
2023-03-08T12:16:26.127Z,23.13
2023-03-08T12:20:32.918Z,23.87
2023-03-08T12:24:45.606Z,23.10
2023-03-08T12:28:55.043Z,21.53
2023-03-08T12:33:02.457Z,21.80
2023-03-08T12:37:06.171Z,19.67
2023-03-08T12:41:23.644Z,21.87
2023-03-08T12:45:30.890Z,20.00
2023-03-08T12:49:38.716Z,19.10
2023-03-08T12:53:44.593Z,19.87
2023-03-08T12:57:50.984Z,19.13
2023-03-08T13:02:02.539Z,18.93
2023-03-08T13:06:34.627Z,15.13
2023-03-08T13:10:40.281Z,17.73
2023-03-08T13:14:45.171Z,14.30
2023-03-08T13:18:53.387Z,12.63
2023-03-08T13:23:19.444Z,13.50
2023-03-08T13:27:32.392Z,14.23
2023-03-08T13:31:35.314Z,15.87
2023-03-08T13:35:38.151Z,12.67
2023-03-08T13:39:42.353Z,11.63
2023-03-08T13:43:45.181Z,10.33
2023-03-08T13:47:48.590Z,10.60
2023-03-08T13:51:54.941Z,10.27
2023-03-08T13:56:02.613Z,12.40
2023-03-08T14:00:24.885Z,11.87
2023-03-08T14:04:29.886Z,11.97
2023-03-08T14:08:33.017Z,12.30
2023-03-08T14:12:38.078Z,11.87
2023-03-08T14:16:43.201Z,11.03
2023-03-08T14:20:46.770Z,13.70
2023-03-08T14:24:54.163Z,11.60
2023-03-08T14:29:13.200Z,13.30
2023-03-08T14:33:28.252Z,12.73
2023-03-08T14:37:34.585Z,13.50
2023-03-08T14:41:38.308Z,16.73
2023-03-08T14:45:52.796Z,13.43
2023-03-08T14:49:57.222Z,13.17
2023-03-08T14:54:02.600Z,13.97
2023-03-08T14:58:11.391Z,14.07
2023-03-08T15:02:18.028Z,12.30
2023-03-08T15:06:23.824Z,13.83
2023-03-08T15:10:30.367Z,15.27
2023-03-08T15:14:33.236Z,11.73
2023-03-08T15:18:37.496Z,12.20
2023-03-08T15:22:44.968Z,13.47
2023-03-08T15:26:47.752Z,11.53
2023-03-08T15:30:52.762Z,14.47
2023-03-08T15:34:56.975Z,13.13
2023-03-08T15:39:01.308Z,13.90
2023-03-08T15:43:04.132Z,11.03
2023-03-08T15:47:07.387Z,10.30
2023-03-08T15:51:18.445Z,13.77
2023-03-08T15:55:22.128Z,10.20
2023-03-08T15:59:25.788Z,11.73
2023-03-08T16:03:31.009Z,11.37
2023-03-08T16:07:36.715Z,13.67
2023-03-08T16:11:39.625Z,11.03
2023-03-08T16:15:42.433Z,12.70
2023-03-08T16:19:45.579Z,11.13
2023-03-08T16:23:49.773Z,12.07
2023-03-08T16:27:53.120Z,11.77
2023-03-08T16:31:57.169Z,14.67
2023-03-08T16:35:59.994Z,11.13
2023-03-08T16:40:07.187Z,11.00
2023-03-08T16:44:20.223Z,11.80
2023-03-08T16:48:24.092Z,9.87
2023-03-08T16:52:32.782Z,11.57
2023-03-08T16:56:44.665Z,12.60
2023-03-08T17:00:47.951Z,10.97
2023-03-08T17:04:52.089Z,11.07
2023-03-08T17:08:54.945Z,11.27
2023-03-08T17:12:59.141Z,9.50
2023-03-08T17:17:01.931Z,8.17
2023-03-08T17:21:07.345Z,9.13
2023-03-08T17:25:10.596Z,8.57
2023-03-08T17:29:15.297Z,10.03
2023-03-08T17:33:18.105Z,10.20
2023-03-08T17:37:22.959Z,10.77
2023-03-08T17:41:25.804Z,11.87
2023-03-08T17:45:30.290Z,10.70
2023-03-08T17:49:34.107Z,10.20
2023-03-08T17:53:50.140Z,10.13
2023-03-08T17:57:52.991Z,9.70
2023-03-08T18:01:58.156Z,10.77
2023-03-08T18:06:01.120Z,10.37
2023-03-08T18:10:04.144Z,11.10
2023-03-08T18:14:08.155Z,8.53
2023-03-08T18:18:12.284Z,8.43
2023-03-08T18:22:16.135Z,8.50
2023-03-08T18:26:19.604Z,10.20
2023-03-08T18:30:22.603Z,9.57
2023-03-08T18:34:26.944Z,8.77
2023-03-08T18:38:35.789Z,8.33
2023-03-08T18:42:38.745Z,8.83
2023-03-08T18:46:41.671Z,10.97
2023-03-08T18:50:45.953Z,9.17
2023-03-08T18:54:49.590Z,9.33
2023-03-08T18:58:52.579Z,9.60
2023-03-08T19:02:55.475Z,9.63
2023-03-08T19:06:59.714Z,10.23
2023-03-08T19:11:11.304Z,9.57
2023-03-08T19:15:14.360Z,11.10
2023-03-08T19:19:18.125Z,10.00
2023-03-08T19:23:22.364Z,11.00
2023-03-08T19:27:25.538Z,11.07
2023-03-08T19:31:28.542Z,13.30
2023-03-08T19:35:31.795Z,11.27
2023-03-08T19:39:38.014Z,11.63
2023-03-08T19:43:41.135Z,11.10
2023-03-08T19:47:43.936Z,10.93
2023-03-08T19:51:48.094Z,10.37
2023-03-08T19:55:52.945Z,14.70
2023-03-08T19:59:57.730Z,11.53
2023-03-08T20:04:00.763Z,12.40
2023-03-08T20:08:03.681Z,11.60
2023-03-08T20:12:07.998Z,13.70
2023-03-08T20:16:10.868Z,14.33
2023-03-08T20:20:14.065Z,17.07
2023-03-08T20:24:18.427Z,17.47
2023-03-08T20:28:22.644Z,16.60
2023-03-08T20:32:25.585Z,18.40
2023-03-08T20:36:29.432Z,17.43
2023-03-08T20:40:32.222Z,18.07
2023-03-08T20:44:36.398Z,20.20
2023-03-08T20:48:40.952Z,15.83
2023-03-08T20:52:43.752Z,19.63
2023-03-08T20:56:46.525Z,20.07
2023-03-08T21:00:50.735Z,21.10
2023-03-08T21:04:53.569Z,21.77
2023-03-08T21:08:56.709Z,22.77
2023-03-08T21:12:59.662Z,20.70
2023-03-08T21:17:03.834Z,21.50
2023-03-08T21:21:07.150Z,20.53
2023-03-08T21:25:11.053Z,21.63
2023-03-08T21:29:15.652Z,23.77
2023-03-08T21:33:20.081Z,21.87
2023-03-08T21:37:22.929Z,20.83
2023-03-08T21:41:27.198Z,26.00
2023-03-08T21:45:30.067Z,24.40
2023-03-08T21:49:35.099Z,25.73
2023-03-08T21:53:38.333Z,22.87
2023-03-08T21:57:41.523Z,27.73
2023-03-08T22:01:48.105Z,25.90
2023-03-08T22:05:53.807Z,27.33
2023-03-08T22:09:56.631Z,24.77
2023-03-08T22:14:01.990Z,28.37
2023-03-08T22:18:04.864Z,26.47
2023-03-08T22:22:10.375Z,29.97
2023-03-08T22:26:13.247Z,28.20
2023-03-08T22:30:16.378Z,26.83
2023-03-08T22:34:19.137Z,30.37
2023-03-08T22:38:23.319Z,29.97
2023-03-08T22:42:26.269Z,31.67
2023-03-08T22:46:29.049Z,32.77
2023-03-08T22:50:32.197Z,30.37
2023-03-08T22:54:37.141Z,29.87
2023-03-08T22:58:39.942Z,35.47
2023-03-08T23:02:43.125Z,33.83
2023-03-08T23:06:46.041Z,33.40
2023-03-08T23:10:50.315Z,38.03
2023-03-08T23:14:53.071Z,30.47
2023-03-08T23:18:56.274Z,28.53
2023-03-08T23:22:59.136Z,30.30
2023-03-08T23:27:04.231Z,29.03
2023-03-08T23:31:10.371Z,31.83
2023-03-08T23:35:13.661Z,29.60
2023-03-08T23:39:16.496Z,34.17
2023-03-08T23:43:20.703Z,32.73
2023-03-08T23:47:23.490Z,36.40
2023-03-08T23:51:29.034Z,38.00
2023-03-08T23:55:32.005Z,38.73
2023-03-08T23:59:36.454Z,42.23
